Time;durP1;ratioP1;P1;durP2;ratioP2;P2;SDS_P1;SDS_P2;PMS_P1;PMS_P2;Temp;Humidity;BMP_temperature;BMP_pressure;BME280_temperature;BME280_humidity;BME280_pressure;Samples;Min_cycle;Max_cycle;Signal;HPM_P1;HPM_P2
2022/04/18 00:01:13;;;;;;;13.40;9.30;;;;;;;-2.93;69.10;97392.17;110114;1248;69412;-67
2022/04/18 00:03:43;;;;;;;10.90;6.80;;;;;;;-2.91;68.67;97391.79;110074;1250;69523;-66
2022/04/18 00:06:12;;;;;;;12.50;7.70;;;;;;;-2.91;68.64;97388.38;109949;1247;59771;-67
2022/04/18 00:08:42;;;;;;;10.50;6.80;;;;;;;-2.93;68.35;97381.94;110060;1248;59746;-67
2022/04/18 00:11:11;;;;;;;11.00;7.50;;;;;;;-2.95;67.91;97379.42;109924;1250;70795;-65
2022/04/18 00:13:41;;;;;;;12.70;7.60;;;;;;;-2.92;68.68;97374.76;109996;1247;69179;-67
2022/04/18 00:16:11;;;;;;;8.20;5.80;;;;;;;-2.86;68.86;97373.11;110097;1247;69390;-66
2022/04/18 00:18:41;;;;;;;16.60;8.90;;;;;;;-2.85;69.44;97366.60;110039;1248;59708;-66
2022/04/18 00:21:11;;;;;;;12.50;7.80;;;;;;;-2.86;70.34;97366.28;109907;1247;59901;-66
2022/04/18 00:23:40;;;;;;;12.50;7.50;;;;;;;-2.89;69.01;97365.66;110129;1247;70653;-67
2022/04/18 00:26:11;;;;;;;13.70;9.10;;;;;;;-2.94;68.27;97365.42;110118;1247;69401;-67
2022/04/18 00:28:40;;;;;;;11.70;7.30;;;;;;;-2.97;70.19;97360.70;110056;1247;67492;-68
2022/04/18 00:31:10;;;;;;;12.10;8.00;;;;;;;-3.00;70.54;97360.09;110047;1249;59745;-68
2022/04/18 00:33:41;;;;;;;13.20;8.50;;;;;;;-3.05;71.92;97352.50;110061;1248;59688;-66
2022/04/18 00:36:10;;;;;;;12.90;7.00;;;;;;;-3.04;71.32;97350.27;109882;1248;71548;-66
2022/04/18 00:38:44;;;;;;;12.30;7.90;;;;;;;-3.03;70.03;97348.02;110074;1248;67613;-67
2022/04/18 00:41:14;;;;;;;10.80;7.60;;;;;;;-3.02;70.75;97343.73;109705;1249;69679;-68
2022/04/18 00:43:47;;;;;;;9.40;5.90;;;;;;;-3.02;70.83;97345.62;110057;1250;59735;-67
2022/04/18 00:46:20;;;;;;;11.00;7.60;;;;;;;-3.05;69.48;97343.81;110112;1250;59684;-68
2022/04/18 00:48:50;;;;;;;12.10;7.40;;;;;;;-3.10;69.06;97344.08;110075;1248;71365;-68
2022/04/18 00:51:25;;;;;;;12.90;7.60;;;;;;;-3.13;71.91;97343.80;110128;1247;68585;-69
2022/04/18 00:53:57;;;;;;;10.80;7.50;;;;;;;-3.17;70.92;97339.09;110014;1248;69206;-67
2022/04/18 00:56:27;;;;;;;11.10;7.50;;;;;;;-3.19;71.40;97342.22;110067;1247;59755;-69
2022/04/18 00:58:59;;;;;;;10.10;7.10;;;;;;;-3.20;72.71;97343.08;110135;1247;59765;-66
2022/04/18 01:01:29;;;;;;;10.40;7.50;;;;;;;-3.22;71.90;97341.77;110091;1248;70844;-68
2022/04/18 01:04:00;;;;;;;12.80;8.30;;;;;;;-3.22;72.82;97336.81;109816;1248;69381;-68
2022/04/18 01:06:31;;;;;;;11.40;6.90;;;;;;;-3.23;72.16;97333.59;109897;1247;69462;-67
2022/04/18 01:09:03;;;;;;;9.60;6.70;;;;;;;-3.25;72.87;97331.07;110078;1248;59682;-67
2022/04/18 01:11:33;;;;;;;11.80;6.20;;;;;;;-3.27;73.36;97330.44;110117;1247;59668;-67
2022/04/18 01:14:10;;;;;;;9.50;6.60;;;;;;;-3.28;72.96;97324.33;110099;1248;70871;-68
2022/04/18 01:16:53;;;;;;;12.70;8.30;;;;;;;-3.26;72.70;97320.19;110081;1248;69053;-67
2022/04/18 01:19:23;;;;;;;10.60;8.00;;;;;;;-3.25;73.36;97316.94;110109;1247;69225;-67
2022/04/18 01:22:14;;;;;;;10.20;7.90;;;;;;;-3.29;73.04;97312.06;110032;1248;59736;-67
2022/04/18 01:30:53;;;;;;;11.50;7.20;;;;;;;-3.33;74.13;97305.14;109843;1250;68433;-68
2022/04/18 01:33:25;;;;;;;9.90;7.30;;;;;;;-3.32;74.26;97303.95;110116;1248;68930;-68
2022/04/18 01:35:55;;;;;;;15.90;9.10;;;;;;;-3.32;74.57;97302.06;110110;1248;59795;-66
2022/04/18 01:38:25;;;;;;;13.70;8.90;;;;;;;-3.29;74.20;97302.02;110092;1248;59753;-67
2022/04/18 01:40:56;;;;;;;14.30;8.10;;;;;;;-3.26;73.55;97296.83;109898;1248;71371;-68
2022/04/18 01:43:26;;;;;;;15.30;9.80;;;;;;;-3.28;72.14;97294.49;110053;1249;68690;-69
2022/04/18 01:45:58;;;;;;;13.20;8.80;;;;;;;-3.32;73.10;97297.98;109884;1250;68605;-69
2022/04/18 01:48:30;;;;;;;14.90;10.00;;;;;;;-3.37;73.44;97295.67;109868;1247;59688;-67
2022/04/18 01:51:00;;;;;;;13.10;8.50;;;;;;;-3.43;71.90;97292.21;110119;1247;59721;-66
2022/04/18 01:53:31;;;;;;;13.40;8.60;;;;;;;-3.47;71.72;97287.02;110067;1248;71516;-69
2022/04/18 01:56:03;;;;;;;16.20;9.70;;;;;;;-3.50;71.39;97284.35;110186;1248;69205;-66
2022/04/18 01:58:37;;;;;;;11.70;7.70;;;;;;;-3.51;71.16;97275.51;109968;1248;68638;-68
2022/04/18 02:01:07;;;;;;;11.40;7.80;;;;;;;-3.51;71.94;97275.69;110070;1248;59803;-68
2022/04/18 02:03:42;;;;;;;10.10;7.50;;;;;;;-3.52;72.10;97269.58;109903;1249;59824;-69
2022/04/18 02:06:13;;;;;;;10.30;6.40;;;;;;;-3.55;71.51;97268.44;110099;1248;71511;-68
2022/04/18 02:08:43;;;;;;;9.70;5.90;;;;;;;-3.56;71.17;97266.23;110120;1247;67804;-69
2022/04/18 02:11:14;;;;;;;8.40;5.70;;;;;;;-3.58;71.11;97262.17;110055;1248;68769;-66
2022/04/18 02:13:44;;;;;;;6.50;4.20;;;;;;;-3.58;70.93;97261.50;110073;1247;59761;-68
2022/04/18 02:16:14;;;;;;;8.50;6.30;;;;;;;-3.59;71.19;97259.47;110100;1249;59736;-67
2022/04/18 02:18:47;;;;;;;11.90;6.40;;;;;;;-3.60;70.49;97258.29;110081;1248;70992;-66
2022/04/18 02:21:19;;;;;;;7.70;4.30;;;;;;;-3.63;71.98;97257.67;110110;1247;68441;-68
2022/04/18 02:23:50;;;;;;;14.00;8.60;;;;;;;-3.68;70.52;97253.34;110060;1248;68526;-67
2022/04/18 02:26:21;;;;;;;9.90;6.70;;;;;;;-3.72;70.53;97250.01;110102;1247;59697;-68
2022/04/18 02:29:02;;;;;;;13.60;8.30;;;;;;;-3.74;70.75;97246.65;110106;1248;59726;-67
2022/04/18 02:32:47;;;;;;;12.40;7.70;;;;;;;-3.75;74.16;97246.31;109905;1247;71629;-67
2022/04/18 02:34:24;;;;;;;12.70;9.00;;;;;;;-3.78;73.16;97244.35;110155;1247;68682;-67
2022/04/18 02:36:54;;;;;;;15.20;8.60;;;;;;;-3.84;71.88;97245.65;110122;1245;69403;-67
2022/04/18 02:39:26;;;;;;;12.10;7.50;;;;;;;-3.90;72.93;97239.63;110065;1248;59827;-67
2022/04/18 02:41:57;;;;;;;9.60;6.60;;;;;;;-3.95;74.28;97238.69;109999;1247;59682;-67
2022/04/18 02:44:30;;;;;;;12.80;8.10;;;;;;;-3.98;73.47;97231.77;110119;1247;71893;-68
2022/04/18 02:47:02;;;;;;;13.10;9.10;;;;;;;-3.98;73.58;97234.48;110163;1247;69257;-69
2022/04/18 02:49:36;;;;;;;10.90;6.60;;;;;;;-4.00;73.52;97229.76;110051;1247;69497;-68
2022/04/18 02:52:08;;;;;;;11.30;7.30;;;;;;;-3.99;75.35;97230.25;110097;1247;59760;-68
2022/04/18 02:54:39;;;;;;;12.30;8.10;;;;;;;-4.01;75.15;97225.52;109893;1250;59669;-68
2022/04/18 02:57:09;;;;;;;;;;;;;;;-4.00;76.03;97228.39;109994;1249;71524;-68
2022/04/18 02:59:40;;;;;;;9.90;6.60;;;;;;;-3.99;75.57;97221.58;110023;1248;68689;-67
2022/04/18 03:02:10;;;;;;;8.60;7.20;;;;;;;-3.98;74.96;97221.55;110085;1247;69289;-66
2022/04/18 03:04:40;;;;;;;12.60;7.70;;;;;;;-3.98;74.22;97218.14;109668;1250;59739;-66
2022/04/18 03:07:11;;;;;;;13.00;7.90;;;;;;;-3.97;74.19;97222.39;109963;1249;60159;-66
2022/04/18 03:09:41;;;;;;;12.90;8.00;;;;;;;-3.98;73.63;97221.04;110098;1248;71492;-67
2022/04/18 03:12:11;;;;;;;7.00;5.10;;;;;;;-4.01;72.52;97221.95;109686;1248;69258;-65
2022/04/18 03:14:41;;;;;;;13.20;7.80;;;;;;;-4.03;75.07;97223.15;110056;1247;69246;-68
2022/04/18 03:17:12;;;;;;;12.30;8.50;;;;;;;-4.04;76.41;97226.93;109954;1249;59764;-68
2022/04/18 03:19:42;;;;;;;13.90;8.00;;;;;;;-4.06;75.29;97227.83;109607;1248;59656;-66
2022/04/18 03:22:12;;;;;;;14.60;9.50;;;;;;;-4.03;76.42;97227.27;110072;1248;70854;-66
2022/04/18 03:24:45;;;;;;;10.30;6.80;;;;;;;-4.03;74.92;97223.67;110067;1248;68586;-68
2022/04/18 03:27:20;;;;;;;11.80;9.10;;;;;;;-4.04;74.09;97226.75;109882;1251;69379;-69
2022/04/18 03:29:50;;;;;;;11.70;8.60;;;;;;;-4.02;73.24;97227.23;109975;1247;59759;-68
2022/04/18 03:32:25;;;;;;;10.70;8.20;;;;;;;-4.01;75.03;97220.77;110037;1248;59711;-67
2022/04/18 03:34:55;;;;;;;;;;;;;;;-4.01;73.52;97220.94;109989;1250;71029;-67
2022/04/18 03:40:14;;;;;;;11.20;8.00;;;;;;;-3.99;75.66;97223.60;109722;1251;69325;-68
2022/04/18 03:42:44;;;;;;;15.80;10.00;;;;;;;-3.98;75.37;97223.60;109804;1249;59771;-68
2022/04/18 03:45:16;;;;;;;13.20;8.40;;;;;;;-3.96;75.33;97225.09;109646;1252;59738;-67
2022/04/18 03:47:47;;;;;;;13.20;8.60;;;;;;;-3.95;74.91;97223.54;109973;1247;71533;-67
2022/04/18 03:50:17;;;;;;;13.00;9.00;;;;;;;-3.92;73.67;97228.93;109835;1248;68995;-68
2022/04/18 03:52:47;;;;;;;15.80;9.80;;;;;;;-3.90;73.51;97222.94;110063;1248;68840;-67
2022/04/18 03:55:26;;;;;;;15.50;10.30;;;;;;;-3.90;73.49;97223.60;109838;1248;59748;-67
2022/04/18 03:57:57;;;;;;;11.10;7.40;;;;;;;-3.88;75.76;97227.50;110077;1247;59805;-67
2022/04/18 04:00:27;;;;;;;17.30;12.10;;;;;;;-3.87;73.88;97230.55;109947;1248;71656;-66
2022/04/18 04:02:57;;;;;;;19.90;11.30;;;;;;;-3.88;73.39;97229.55;110050;1247;68532;-67
2022/04/18 04:05:34;;;;;;;18.50;11.60;;;;;;;-3.90;73.54;97229.23;110034;1248;69853;-67
2022/04/18 04:08:05;;;;;;;24.00;14.40;;;;;;;-3.87;74.22;97226.45;110042;1247;59802;-68
2022/04/18 04:10:36;;;;;;;22.20;13.30;;;;;;;-3.75;74.73;97232.35;110267;1247;59685;-68
2022/04/18 04:13:07;;;;;;;19.20;14.00;;;;;;;-3.59;74.95;97228.46;109771;1248;69745;-67
2022/04/18 04:15:56;;;;;;;16.60;10.40;;;;;;;-3.35;74.86;97232.60;110070;1248;68623;-67
2022/04/18 04:18:30;;;;;;;23.50;12.70;;;;;;;-3.11;74.83;97236.17;110129;1247;68937;-67
2022/04/18 04:21:04;;;;;;;22.30;12.80;;;;;;;-2.90;73.96;97232.65;109891;1247;59685;-66
2022/04/18 04:23:34;;;;;;;15.70;11.10;;;;;;;-2.74;73.19;97226.15;109764;1248;59760;-66
2022/04/18 04:26:44;;;;;;;13.90;9.70;;;;;;;-2.54;72.84;97230.80;109972;1248;72137;-65
2022/04/18 04:29:19;;;;;;;17.30;11.80;;;;;;;-2.38;73.28;97223.77;109870;1249;69332;-67
2022/04/18 04:32:08;;;;;;;21.30;14.70;;;;;;;-2.08;74.04;97225.58;109868;1249;68268;-67
2022/04/18 04:34:40;;;;;;;24.40;16.70;;;;;;;-1.75;73.96;97225.05;109837;1248;59760;-68
2022/04/18 04:37:27;;;;;;;23.30;15.50;;;;;;;-1.36;73.44;97219.89;109924;1248;59646;-66
2022/04/18 04:40:11;;;;;;;23.40;15.50;;;;;;;-1.01;71.99;97213.75;109885;1248;70722;-67
2022/04/18 04:42:41;;;;;;;16.30;11.50;;;;;;;-0.77;69.40;97210.27;109918;1247;69367;-66
2022/04/18 04:45:11;;;;;;;21.70;16.80;;;;;;;-0.54;68.38;97209.88;110042;1248;68495;-65
2022/04/18 04:48:04;;;;;;;24.90;16.50;;;;;;;-0.37;67.85;97209.84;109869;1247;59767;-68
2022/04/18 04:50:36;;;;;;;26.20;18.50;;;;;;;-0.07;68.54;97210.92;109969;1248;59739;-68
2022/04/18 04:53:06;;;;;;;20.40;15.60;;;;;;;0.17;68.49;97218.31;109792;1248;70770;-66
2022/04/18 04:55:37;;;;;;;20.70;12.90;;;;;;;0.34;67.20;97217.89;109911;1248;69437;-66
2022/04/18 04:58:09;;;;;;;20.30;13.50;;;;;;;0.52;66.25;97215.36;110023;1248;68506;-67
2022/04/18 05:00:45;;;;;;;17.50;12.90;;;;;;;0.83;66.96;97215.78;110053;1248;59761;-66
2022/04/18 05:03:33;;;;;;;17.90;13.80;;;;;;;1.12;66.30;97213.52;110103;1247;59635;-66
2022/04/18 05:06:02;;;;;;;17.00;12.90;;;;;;;1.38;65.90;97209.41;110069;1247;71708;-68
2022/04/18 05:08:41;;;;;;;17.60;13.50;;;;;;;1.62;64.52;97204.83;110061;1247;68453;-68
2022/04/18 05:11:17;;;;;;;17.70;12.30;;;;;;;1.89;63.83;97204.92;110116;1247;68646;-66
2022/04/18 05:13:57;;;;;;;16.60;11.70;;;;;;;2.21;61.86;97204.95;110142;1245;59748;-66
2022/04/18 05:16:41;;;;;;;16.50;12.60;;;;;;;2.54;59.71;97202.51;110080;1247;59642;-66
2022/04/18 05:19:19;;;;;;;18.60;12.70;;;;;;;2.84;58.82;97203.21;109854;1248;71650;-67
2022/04/18 05:21:49;;;;;;;15.60;11.50;;;;;;;3.04;54.73;97200.59;109974;1247;69506;-67
2022/04/18 05:24:25;;;;;;;13.20;9.50;;;;;;;3.28;59.26;97201.54;110125;1247;69441;-67
2022/04/18 05:26:55;;;;;;;11.00;8.80;;;;;;;3.65;58.43;97199.27;109859;1248;59775;-66
2022/04/18 05:29:24;;;;;;;12.80;8.70;;;;;;;4.03;57.64;97205.37;109888;1246;59676;-69
2022/04/18 05:31:54;;;;;;;10.50;8.50;;;;;;;4.37;56.67;97201.89;109856;1247;70790;-66
2022/04/18 05:34:24;;;;;;;13.60;9.80;;;;;;;4.59;52.75;97205.44;110079;1247;69656;-67
2022/04/18 05:37:04;;;;;;;16.90;10.60;;;;;;;4.55;49.62;97201.45;110043;1247;70036;-67
2022/04/18 05:39:57;;;;;;;12.80;8.30;;;;;;;4.88;54.04;97199.75;110037;1248;59688;-68
2022/04/18 05:42:28;;;;;;;16.30;10.40;;;;;;;5.11;50.02;97194.36;110137;1247;59679;-69
2022/04/18 05:45:00;;;;;;;14.70;9.80;;;;;;;5.24;48.12;97196.09;110043;1247;72106;-68
2022/04/18 05:47:30;;;;;;;15.90;11.00;;;;;;;5.36;47.83;97195.41;110132;1247;67570;-69
2022/04/18 05:50:00;;;;;;;14.20;10.70;;;;;;;5.38;47.23;97189.27;110002;1247;70089;-66
2022/04/18 05:52:31;;;;;;;14.40;10.40;;;;;;;5.81;50.79;97191.14;110135;1247;59735;-66
2022/04/18 05:55:10;;;;;;;16.80;12.20;;;;;;;6.03;48.29;97187.48;110100;1247;59702;-67
2022/04/18 05:57:39;;;;;;;14.40;9.60;;;;;;;6.00;48.34;97190.80;110099;1247;71650;-67
2022/04/18 06:00:09;;;;;;;14.30;10.70;;;;;;;6.32;48.11;97192.39;110073;1247;69511;-67
2022/04/18 06:02:41;;;;;;;15.80;12.20;;;;;;;6.30;46.60;97195.12;110017;1247;68756;-68
2022/04/18 06:05:14;;;;;;;13.70;10.40;;;;;;;6.41;46.32;97191.19;110049;1246;59750;-67
2022/04/18 06:07:48;;;;;;;14.20;10.60;;;;;;;6.64;44.88;97190.44;110120;1247;59717;-67
2022/04/18 06:10:41;;;;;;;10.40;8.40;;;;;;;6.66;43.87;97188.29;109955;1247;72058;-66
2022/04/18 06:13:43;;;;;;;9.90;8.50;;;;;;;6.62;45.12;97190.05;109736;1247;69452;-68
2022/04/18 06:16:12;;;;;;;12.80;8.60;;;;;;;6.71;45.25;97187.96;110009;1247;69271;-66
2022/04/18 06:18:43;;;;;;;11.90;8.10;;;;;;;7.12;45.18;97188.69;109840;1247;59703;-68
2022/04/18 06:21:13;;;;;;;9.90;7.90;;;;;;;7.28;44.11;97187.02;109992;1247;59731;-66
2022/04/18 06:23:43;;;;;;;12.20;9.00;;;;;;;7.66;42.79;97184.09;109844;1247;72216;-67
2022/04/18 06:26:31;;;;;;;9.10;6.50;;;;;;;7.68;42.12;97184.48;110115;1247;69122;-67
2022/04/18 06:29:01;;;;;;;7.90;5.30;;;;;;;7.90;41.24;97185.31;110093;1247;69442;-68
2022/04/18 06:31:30;;;;;;;7.60;5.60;;;;;;;8.15;40.28;97187.85;110022;1247;59743;-68
2022/04/18 06:34:02;;;;;;;4.30;3.40;;;;;;;8.32;39.89;97188.44;110165;1245;59693;-69
2022/04/18 06:36:32;;;;;;;5.60;4.10;;;;;;;8.33;38.83;97186.44;110064;1247;70771;-68
2022/04/18 06:39:22;;;;;;;4.50;3.80;;;;;;;8.29;38.01;97187.23;110221;1246;69397;-67
2022/04/18 06:42:00;;;;;;;4.90;3.60;;;;;;;8.24;36.95;97180.27;110064;1247;68675;-67
2022/04/18 06:44:32;;;;;;;4.20;2.70;;;;;;;8.51;36.83;97183.32;110099;1247;59705;-67
2022/04/18 06:47:03;;;;;;;2.90;2.20;;;;;;;8.75;35.33;97182.25;110049;1247;59711;-66
2022/04/18 06:49:52;;;;;;;4.60;3.30;;;;;;;9.20;36.70;97171.23;110019;1247;70617;-70
2022/04/18 06:52:49;;;;;;;4.70;4.00;;;;;;;9.53;35.58;97171.98;110267;1246;68669;-69
2022/04/18 06:58:51;;;;;;;5.10;3.90;;;;;;;9.98;33.83;97166.77;110119;1247;59741;-70
2022/04/18 07:01:21;;;;;;;4.30;3.30;;;;;;;9.69;33.38;97168.44;110124;1247;59696;-69
2022/04/18 07:03:50;;;;;;;3.80;2.80;;;;;;;9.81;34.51;97169.44;110180;1247;69856;-69
2022/04/18 07:06:20;;;;;;;2.60;1.90;;;;;;;10.12;33.63;97166.92;110235;1246;68897;-69
2022/04/18 07:08:50;;;;;;;3.60;2.30;;;;;;;10.36;33.79;97163.60;110188;1247;68669;-69
2022/04/18 07:11:42;;;;;;;2.80;2.20;;;;;;;10.27;33.19;97165.30;109962;1249;59707;-69
2022/04/18 07:14:13;;;;;;;;;;;;;;;10.27;33.34;97162.55;110235;1247;59645;-68
2022/04/18 07:16:43;;;;;;;4.30;2.80;;;;;;;10.59;32.85;97162.23;110259;1246;71403;-69
2022/04/18 07:19:16;;;;;;;3.30;2.30;;;;;;;10.95;32.32;97162.92;110226;1247;69383;-68
2022/04/18 07:21:45;;;;;;;2.70;2.00;;;;;;;11.09;30.38;97162.31;110186;1246;68625;-70
2022/04/18 07:24:14;;;;;;;2.80;2.10;;;;;;;10.90;30.31;97162.60;110231;1247;59763;-68
2022/04/18 07:26:45;;;;;;;2.90;2.00;;;;;;;10.59;30.35;97160.43;110406;1246;60054;-68
2022/04/18 07:29:14;;;;;;;2.70;1.80;;;;;;;10.50;30.39;97161.69;110249;1247;71508;-68
2022/04/18 07:31:44;;;;;;;2.70;1.90;;;;;;;10.40;31.31;97156.67;110301;1247;69511;-69
2022/04/18 07:34:13;;;;;;;4.00;2.30;;;;;;;10.46;30.15;97148.63;110378;1247;69435;-68
2022/04/18 07:36:42;;;;;;;3.10;2.20;;;;;;;10.46;30.74;97151.02;110171;1247;59619;-69
2022/04/18 07:39:11;;;;;;;2.50;1.80;;;;;;;9.99;30.62;97150.02;110208;1247;59629;-69
2022/04/18 07:41:45;;;;;;;2.90;2.20;;;;;;;10.25;30.03;97148.10;110195;1247;71612;-70
2022/04/18 07:44:14;;;;;;;2.30;1.90;;;;;;;10.14;30.37;97144.00;110208;1244;68532;-71
2022/04/18 07:46:46;;;;;;;3.90;2.20;;;;;;;9.79;30.62;97143.80;110441;1247;68498;-71
2022/04/18 07:49:23;;;;;;;2.00;1.60;;;;;;;10.12;31.15;97146.23;110163;1247;59743;-69
2022/04/18 07:51:52;;;;;;;2.90;1.90;;;;;;;9.89;30.87;97139.39;110207;1246;59748;-69
2022/04/18 07:54:41;;;;;;;2.90;2.00;;;;;;;9.94;30.82;97135.92;110270;1247;71114;-69
2022/04/18 07:57:10;;;;;;;2.20;1.90;;;;;;;10.71;31.89;97135.85;110156;1247;67790;-69
2022/04/18 07:59:53;;;;;;;2.40;1.80;;;;;;;11.49;30.81;97133.01;110263;1247;68446;-69
2022/04/18 08:02:23;;;;;;;4.90;2.40;;;;;;;11.78;29.46;97133.40;110154;1247;59703;-68
2022/04/18 08:05:09;;;;;;;2.70;1.70;;;;;;;12.04;29.33;97132.84;110267;1247;59657;-69
2022/04/18 08:07:45;;;;;;;2.80;1.60;;;;;;;12.11;29.88;97132.13;110269;1246;71326;-66
2022/04/18 08:10:15;;;;;;;2.90;1.80;;;;;;;12.25;28.69;97131.44;110195;1247;69834;-69
2022/04/18 08:12:43;;;;;;;2.20;1.50;;;;;;;12.68;29.06;97124.33;110186;1247;69371;-69
2022/04/18 08:15:32;;;;;;;2.30;1.70;;;;;;;13.35;28.36;97121.64;110178;1247;59763;-67
2022/04/18 08:18:02;;;;;;;2.20;1.70;;;;;;;13.01;27.48;97116.21;110073;1247;59638;-70
2022/04/18 08:21:04;;;;;;;3.70;2.10;;;;;;;13.28;27.63;97113.49;109711;1247;71951;-68
2022/04/18 08:23:34;;;;;;;2.00;1.60;;;;;;;13.06;27.02;97115.95;110199;1246;69301;-67
2022/04/18 08:26:22;;;;;;;2.60;2.30;;;;;;;12.69;26.98;97111.96;110156;1245;68611;-70
2022/04/18 08:28:55;;;;;;;2.20;1.80;;;;;;;12.69;26.98;97117.59;110069;1247;59746;-69
2022/04/18 08:31:24;;;;;;;2.40;1.70;;;;;;;12.88;26.84;97119.98;109980;1247;60029;-70
2022/04/18 08:34:04;;;;;;;3.80;1.70;;;;;;;13.01;26.62;97115.30;109991;1247;71970;-68
2022/04/18 08:36:33;;;;;;;;;;;;;;;13.15;26.05;97111.31;110077;1247;69921;-69
2022/04/18 08:39:05;;;;;;;2.60;1.90;;;;;;;13.42;25.38;97110.30;110050;1247;67776;-69
2022/04/18 08:41:58;;;;;;;1.70;1.40;;;;;;;13.57;24.84;97108.14;109995;1247;59704;-68
2022/04/18 08:44:34;;;;;;;3.00;2.10;;;;;;;14.19;25.56;97105.96;110049;1247;59703;-68
2022/04/18 08:47:03;;;;;;;3.10;1.70;;;;;;;14.84;24.36;97101.01;110116;1247;71467;-69
2022/04/18 08:52:44;;;;;;;3.20;2.00;;;;;;;15.50;24.15;97094.79;109623;1253;69416;-69
2022/04/18 08:55:28;;;;;;;1.90;1.70;;;;;;;15.68;24.26;97093.39;110009;1248;59695;-71
2022/04/18 08:57:57;;;;;;;2.50;1.90;;;;;;;15.90;23.97;97093.73;110035;1248;59684;-71
2022/04/18 09:00:28;;;;;;;2.90;2.40;;;;;;;15.78;23.93;97093.15;110087;1247;70960;-70
2022/04/18 09:03:10;;;;;;;3.10;2.20;;;;;;;15.81;23.32;97091.73;109873;1247;67491;-70
2022/04/18 09:06:11;;;;;;;3.70;2.50;;;;;;;16.05;23.49;97092.13;109701;1248;360593;-70
2022/04/18 09:08:53;;;;;;;3.20;2.80;;;;;;;15.55;22.95;97086.45;110180;1247;59673;-71
2022/04/18 09:11:33;;;;;;;5.00;4.40;;;;;;;14.77;24.51;97081.20;110048;1247;59751;-69
2022/04/18 09:14:06;;;;;;;5.60;4.00;;;;;;;13.57;25.86;97081.14;110112;1247;69759;-70
2022/04/18 09:16:37;;;;;;;4.70;4.20;;;;;;;14.11;24.80;97077.25;109838;1248;69227;-71
2022/04/18 09:19:11;;;;;;;5.20;4.10;;;;;;;13.02;25.75;97075.03;110001;1248;70034;-72
2022/04/18 09:21:56;;;;;;;4.70;4.00;;;;;;;12.90;26.88;97076.41;110156;1247;59719;-71
2022/04/18 09:24:32;;;;;;;5.00;4.50;;;;;;;11.63;28.33;97079.98;110142;1247;59737;-72
2022/04/18 09:27:27;;;;;;;5.30;4.30;;;;;;;11.97;27.19;97072.45;110192;1247;70575;-70
2022/04/18 09:30:21;;;;;;;4.80;4.10;;;;;;;11.27;27.92;97068.98;110204;1246;69006;-71
2022/04/18 09:32:55;;;;;;;5.10;4.00;;;;;;;11.14;28.34;97064.25;110194;1247;69857;-71
2022/04/18 09:35:44;;;;;;;5.00;4.40;;;;;;;11.91;28.54;97063.08;109992;1245;59687;-69
2022/04/18 09:38:18;;;;;;;4.90;4.40;;;;;;;12.80;27.27;97055.21;110048;1247;59706;-70
2022/04/18 09:40:55;;;;;;;4.40;3.40;;;;;;;13.45;25.94;97052.52;109848;1248;71186;-69
2022/04/18 09:43:46;;;;;;;3.80;3.30;;;;;;;14.38;24.86;97049.39;110007;1247;69415;-69
2022/04/18 09:46:35;;;;;;;6.00;5.00;;;;;;;15.60;23.82;97056.05;109893;1247;69823;-70
2022/04/18 09:49:11;;;;;;;4.20;3.70;;;;;;;16.08;22.93;97050.91;110012;1247;59776;-70
2022/04/18 09:51:45;;;;;;;3.50;2.70;;;;;;;16.19;22.19;97041.69;109879;1248;59760;-70
2022/04/18 09:54:20;;;;;;;4.90;3.00;;;;;;;15.71;21.10;97040.08;110045;1247;70725;-71
2022/04/18 09:56:50;;;;;;;3.60;3.20;;;;;;;14.39;22.26;97033.11;110155;1247;68616;-70
2022/04/18 09:59:20;;;;;;;3.20;2.40;;;;;;;14.92;21.24;97027.55;110180;1247;69883;-71
2022/04/18 10:01:48;;;;;;;3.50;2.40;;;;;;;15.31;21.26;97026.94;110239;1247;59740;-70
2022/04/18 10:04:18;;;;;;;2.50;2.20;;;;;;;15.70;19.97;97028.91;110057;1247;60140;-70
2022/04/18 10:06:50;;;;;;;;;;;;;;;15.91;20.14;97027.46;110315;1246;72090;-69
2022/04/18 10:09:19;;;;;;;2.90;2.40;;;;;;;16.00;20.84;97023.77;110201;1246;68594;-70
2022/04/18 10:11:49;;;;;;;3.60;2.40;;;;;;;16.30;20.25;97020.04;110195;1247;69816;-71
2022/04/18 10:14:19;;;;;;;2.50;1.70;;;;;;;16.00;20.16;97024.16;110179;1247;59798;-70
2022/04/18 10:16:48;;;;;;;2.50;1.60;;;;;;;16.31;20.63;97020.29;110087;1247;59664;-69
2022/04/18 10:19:28;;;;;;;2.30;1.60;;;;;;;15.90;20.42;97021.44;110071;1247;70891;-69
2022/04/18 10:22:31;;;;;;;2.30;1.50;;;;;;;16.16;20.63;97013.73;109996;1247;69477;-69
2022/04/18 10:25:13;;;;;;;2.20;1.40;;;;;;;15.62;20.62;97014.95;110087;1247;69822;-69
2022/04/18 10:27:55;;;;;;;2.40;1.70;;;;;;;15.21;21.64;97011.61;110058;1247;59741;-70
2022/04/18 10:30:25;;;;;;;2.40;1.80;;;;;;;15.00;22.23;97014.54;110105;1247;59666;-69
2022/04/18 10:32:55;;;;;;;2.30;1.60;;;;;;;14.43;22.49;97012.08;110099;1247;71375;-69
2022/04/18 10:35:24;;;;;;;3.10;2.00;;;;;;;14.17;22.41;97008.43;110320;1245;70065;-70
2022/04/18 10:37:57;;;;;;;3.00;2.20;;;;;;;13.39;23.37;97008.05;110165;1247;69375;-70
2022/04/18 10:40:26;;;;;;;2.20;1.50;;;;;;;13.23;22.52;97005.63;110165;1246;60101;-70
2022/04/18 10:42:55;;;;;;;2.70;1.80;;;;;;;13.07;21.56;97001.29;110169;1247;59736;-70
2022/04/18 10:45:24;;;;;;;2.20;1.60;;;;;;;13.17;20.87;97000.36;110246;1247;72128;-70
2022/04/18 10:47:56;;;;;;;1.70;1.30;;;;;;;14.01;20.57;96994.66;110122;1246;68616;-70
2022/04/18 10:50:28;;;;;;;2.70;1.70;;;;;;;15.14;20.55;96991.90;110178;1245;68770;-70
2022/04/18 10:53:24;;;;;;;2.60;1.60;;;;;;;15.44;20.05;96988.32;110251;1247;59701;-70
2022/04/18 10:55:53;;;;;;;2.70;1.60;;;;;;;16.09;18.89;96984.62;110323;1246;59643;-70
2022/04/18 10:58:24;;;;;;;1.60;1.30;;;;;;;15.74;19.47;96977.41;110279;1246;71423;-69
2022/04/18 11:00:56;;;;;;;2.70;1.80;;;;;;;15.16;19.95;96979.65;110170;1247;69806;-70
2022/04/18 11:04:05;;;;;;;2.10;1.30;;;;;;;14.16;20.80;96978.52;110101;1247;69225;-71
2022/04/18 11:06:37;;;;;;;2.80;2.10;;;;;;;13.46;22.45;96979.40;110198;1246;59717;-70
2022/04/18 11:09:08;;;;;;;3.30;2.50;;;;;;;12.58;24.12;96976.08;110270;1247;59632;-68
2022/04/18 11:11:42;;;;;;;2.70;1.80;;;;;;;12.53;24.36;96977.70;110148;1247;71344;-69
2022/04/18 11:14:23;;;;;;;2.70;2.40;;;;;;;12.40;24.40;96975.85;110097;1247;69959;-69
2022/04/18 11:16:54;;;;;;;3.40;2.60;;;;;;;12.12;24.40;96975.64;110059;1247;69409;-70
2022/04/18 11:19:26;;;;;;;3.80;3.10;;;;;;;11.66;24.86;96970.69;110128;1247;59673;-70
2022/04/18 11:21:56;;;;;;;3.20;2.50;;;;;;;11.27;25.84;96971.14;110040;1247;59705;-69
2022/04/18 11:24:53;;;;;;;4.70;2.60;;;;;;;10.53;26.92;96967.36;110078;1247;72097;-70
2022/04/18 11:27:27;;;;;;;2.50;2.20;;;;;;;11.58;27.43;96961.86;110093;1247;68867;-70
2022/04/18 11:29:58;;;;;;;1.70;1.50;;;;;;;12.97;25.91;96958.08;110087;1246;70195;-71
2022/04/18 11:32:28;;;;;;;;;;;;;;;14.07;22.67;96957.46;110121;1245;59726;-71
2022/04/18 11:34:58;;;;;;;2.60;2.10;;;;;;;15.33;21.78;96955.70;110157;1246;59698;-71
2022/04/18 11:37:31;;;;;;;1.90;1.50;;;;;;;15.58;19.89;96949.11;109822;1247;71528;-71
2022/04/18 11:40:03;;;;;;;2.30;1.70;;;;;;;15.69;20.33;96949.55;110121;1247;69188;-71
2022/04/18 11:42:34;;;;;;;3.20;2.10;;;;;;;15.46;20.33;96946.81;110103;1247;68490;-70
2022/04/18 11:45:04;;;;;;;;;;;;;;;15.02;19.66;96942.77;110091;1247;59594;-71
2022/04/18 11:48:01;;;;;;;2.10;1.30;;;;;;;15.12;20.02;96931.23;110122;1246;59600;-70
2022/04/18 11:50:32;;;;;;;2.80;2.10;;;;;;;15.35;21.96;96930.66;110177;1247;71604;-70
2022/04/18 11:53:04;;;;;;;1.40;1.30;;;;;;;15.76;21.24;96932.06;110204;1247;69412;-69
2022/04/18 11:55:44;;;;;;;1.70;1.20;;;;;;;16.03;20.73;96932.32;110271;1247;70006;-66
2022/04/18 11:58:19;;;;;;;2.60;1.50;;;;;;;16.21;20.46;96928.67;110104;1247;59701;-68
2022/04/18 12:09:14;;;;;;;1.70;1.10;;;;;;;16.51;20.16;96925.37;110114;1246;68924;-70
2022/04/18 12:11:43;;;;;;;1.50;1.00;;;;;;;17.05;18.89;96922.10;110031;1247;59691;-69
2022/04/18 12:14:12;;;;;;;1.80;1.30;;;;;;;16.87;17.83;96919.98;110028;1247;59590;-70
2022/04/18 12:16:41;;;;;;;2.80;1.50;;;;;;;15.55;18.62;96918.83;110072;1247;70977;-70
2022/04/18 12:19:11;;;;;;;;;;;;;;;15.22;19.37;96919.34;110129;1247;68395;-71
2022/04/18 12:21:41;;;;;;;2.00;1.20;;;;;;;14.30;19.93;96915.80;110306;1247;69326;-71